createdAt,value
2023-05-20T00:02:29.485Z,10.21
2023-05-20T00:08:39.896Z,10.19
2023-05-20T00:13:36.449Z,10.23
2023-05-20T00:18:33.112Z,10.32
2023-05-20T00:23:29.466Z,10.26
2023-05-20T00:29:40.253Z,10.26
2023-05-20T00:34:37.891Z,10.32
2023-05-20T00:39:33.186Z,10.2
2023-05-20T00:44:29.876Z,10.2
2023-05-20T00:50:40.439Z,10.2
2023-05-20T00:55:36.919Z,10.13
2023-05-20T01:00:33.488Z,10.13
2023-05-20T01:05:30.018Z,10.07
2023-05-20T01:11:40.624Z,10.07
2023-05-20T01:16:37.344Z,10.07
2023-05-20T01:21:33.704Z,10
2023-05-20T01:26:30.458Z,9.94
2023-05-20T01:32:40.941Z,9.94
2023-05-20T01:37:37.446Z,10
2023-05-20T01:42:33.965Z,9.94
2023-05-20T01:47:30.557Z,9.94
2023-05-20T01:53:41.244Z,9.88
2023-05-20T01:58:38.047Z,9.88
2023-05-20T02:03:34.230Z,9.82
2023-05-20T02:06:02.554Z,9.82
2023-05-20T02:14:41.493Z,9.76
2023-05-20T02:19:38.249Z,9.82
2023-05-20T02:24:34.503Z,9.82
2023-05-20T02:29:31.139Z,9.82
2023-05-20T02:35:41.682Z,9.82
2023-05-20T02:40:38.248Z,9.88
2023-05-20T02:45:34.868Z,9.76
2023-05-20T02:50:31.266Z,9.76
2023-05-20T02:56:42.006Z,9.76
2023-05-20T03:01:38.637Z,9.63
2023-05-20T03:06:35.170Z,9.63
2023-05-20T03:11:31.573Z,9.69
2023-05-20T03:17:42.257Z,9.69
2023-05-20T03:22:38.755Z,9.69
2023-05-20T03:27:35.404Z,9.63
2023-05-20T03:32:31.879Z,9.63
2023-05-20T03:38:42.983Z,9.63
2023-05-20T03:43:39.242Z,9.57
2023-05-20T03:48:35.582Z,9.63
2023-05-20T03:53:32.241Z,9.57
2023-05-20T03:58:28.687Z,9.63
2023-05-20T04:04:39.328Z,9.63
2023-05-20T04:09:35.815Z,9.57
2023-05-20T04:14:33.826Z,9.76
2023-05-20T04:19:29.117Z,9.82
2023-05-20T04:30:36.072Z,10.07
2023-05-20T04:35:32.856Z,10.32
2023-05-20T04:41:43.270Z,10.32
2023-05-20T04:46:39.867Z,10.39
2023-05-20T04:51:36.447Z,10.52
2023-05-20T04:56:32.928Z,10.65
2023-05-20T05:01:29.707Z,10.79
2023-05-20T05:07:40.162Z,10.85
2023-05-20T05:12:36.691Z,10.85
2023-05-20T05:17:33.286Z,10.92
2023-05-20T05:22:29.690Z,10.99
2023-05-20T05:28:40.513Z,10.99
2023-05-20T05:33:36.895Z,11.2
2023-05-20T05:38:33.475Z,11.41
2023-05-20T05:43:30.030Z,11.48
2023-05-20T05:49:40.637Z,11.48
2023-05-20T05:54:37.139Z,11.91
2023-05-20T05:59:33.712Z,11.79
2023-05-20T06:04:30.269Z,11.7
2023-05-20T06:10:40.896Z,11.62
2023-05-20T06:15:37.637Z,11.77
2023-05-20T06:20:33.965Z,12.01
2023-05-20T06:25:30.480Z,11.92
2023-05-20T06:31:41.132Z,11.73
2023-05-20T06:36:37.752Z,11.95
2023-05-20T06:41:34.232Z,11.92
2023-05-20T06:46:31.086Z,11.86
2023-05-20T06:52:41.406Z,11.67
2023-05-20T06:57:37.984Z,11.67
2023-05-20T07:02:34.670Z,11.55
2023-05-20T07:07:31.012Z,11.55
2023-05-20T07:13:41.672Z,11.81
2023-05-20T07:18:38.528Z,11.87
2023-05-20T07:23:34.757Z,11.47
2023-05-20T07:28:31.297Z,11.54
2023-05-20T07:34:41.985Z,11.44
2023-05-20T07:35:56.275Z,11.67
2023-05-20T07:39:38.563Z,11.42
2023-05-20T07:44:35.058Z,11.67
2023-05-20T07:49:31.559Z,11.8
2023-05-20T07:55:42.208Z,11.48
2023-05-20T08:00:38.789Z,11.52
2023-05-20T08:05:35.684Z,11.1
2023-05-20T08:10:32.104Z,11.58
2023-05-20T08:20:33.130Z,11.35
2023-05-20T08:25:29.867Z,11.16
2023-05-20T08:31:40.504Z,11.2
2023-05-20T08:36:36.832Z,11.16
2023-05-20T08:41:33.372Z,11.16
2023-05-20T08:52:40.533Z,11.53
2023-05-20T08:57:37.252Z,10.85
2023-05-20T09:02:33.829Z,10.92
2023-05-20T09:07:30.224Z,10.9
2023-05-20T09:13:40.833Z,10.72
2023-05-20T09:18:37.473Z,10.65
2023-05-20T09:23:33.902Z,10.49
2023-05-20T09:28:30.420Z,10.73
2023-05-20T09:34:41.065Z,10.75
2023-05-20T09:39:37.680Z,10.65
2023-05-20T09:44:34.198Z,10.38
2023-05-20T09:49:30.672Z,10.25
2023-05-20T09:55:41.338Z,10.46
2023-05-20T10:00:37.909Z,10.73
2023-05-20T10:05:34.940Z,10.59
2023-05-20T10:10:31.064Z,10.74
2023-05-20T10:16:41.606Z,10.47
2023-05-20T10:21:38.382Z,10.54
2023-05-20T10:26:34.684Z,10.48
2023-05-20T10:31:31.233Z,10.58
2023-05-20T10:37:41.986Z,10.65
2023-05-20T10:42:38.448Z,10.96
2023-05-20T10:47:35.042Z,10.92
2023-05-20T10:52:31.574Z,10.61
2023-05-20T10:58:42.165Z,10.86
2023-05-20T11:03:38.856Z,11.09
2023-05-20T11:08:35.204Z,10.63
2023-05-20T11:13:31.893Z,10.88
2023-05-20T11:18:28.396Z,10.72
2023-05-20T11:24:39.060Z,10.43
2023-05-20T11:29:35.585Z,10.65
2023-05-20T11:34:32.030Z,10.61
2023-05-20T11:39:28.626Z,10.54
2023-05-20T11:45:39.319Z,10.72
2023-05-20T11:50:35.994Z,10.64
2023-05-20T11:55:32.317Z,10.84
2023-05-20T12:00:31.338Z,11
2023-05-20T12:06:39.571Z,11
2023-05-20T12:11:36.046Z,10.92
2023-05-20T12:16:32.819Z,10.92
2023-05-20T12:21:29.239Z,11.42
2023-05-20T12:27:39.854Z,10.6
2023-05-20T12:32:36.335Z,10.56
2023-05-20T12:37:34.424Z,10.35
2023-05-20T12:42:29.406Z,10.43
2023-05-20T12:48:42.497Z,10.66
2023-05-20T12:58:33.331Z,11.06
2023-05-20T13:01:01.387Z,11.29
2023-05-20T13:03:29.696Z,11.24
2023-05-20T13:09:40.346Z,11.87
2023-05-20T13:14:37.040Z,11.05
2023-05-20T13:19:33.457Z,10.68
2023-05-20T13:30:40.765Z,11.43
2023-05-20T13:35:37.221Z,11.46
2023-05-20T13:40:33.840Z,10.62
2023-05-20T13:45:30.221Z,10.86
2023-05-20T13:51:40.927Z,10.74
2023-05-20T13:56:37.529Z,10.36
2023-05-20T14:01:34.099Z,11.01
2023-05-20T14:06:30.463Z,10.46
2023-05-20T14:12:41.125Z,10.37
2023-05-20T14:17:37.744Z,10.29
2023-05-20T14:22:34.192Z,10.5
2023-05-20T14:27:30.708Z,10.21
2023-05-20T14:33:41.404Z,9.97
2023-05-20T14:38:38.111Z,10.13
2023-05-20T14:43:34.515Z,10.93
2023-05-20T14:48:31.083Z,10.03
2023-05-20T14:54:41.744Z,10.98
2023-05-20T14:59:38.336Z,11.08
2023-05-20T15:04:34.712Z,10.37
2023-05-20T15:09:31.295Z,9.85
2023-05-20T15:15:42.112Z,9.75
2023-05-20T15:20:38.711Z,10
2023-05-20T15:25:35.136Z,9.79
2023-05-20T15:30:31.657Z,9.98
2023-05-20T15:36:42.198Z,9.92
2023-05-20T15:41:40.489Z,9.77
2023-05-20T15:46:35.369Z,9.98
2023-05-20T15:51:31.803Z,9.91
2023-05-20T15:57:42.504Z,9.87
2023-05-20T16:02:39.110Z,9.73
2023-05-20T16:07:35.555Z,9.87
2023-05-20T16:12:32.194Z,10.05
2023-05-20T16:18:42.815Z,9.9
2023-05-20T16:23:39.312Z,10.29
2023-05-20T16:28:35.887Z,10.18
2023-05-20T16:33:32.502Z,10.18
2023-05-20T16:38:28.926Z,10.05
2023-05-20T16:44:39.673Z,10.15
2023-05-20T16:49:36.090Z,10.05
2023-05-20T16:54:32.696Z,10.27
2023-05-20T16:59:29.188Z,10.39
2023-05-20T17:05:39.850Z,10.53
2023-05-20T17:10:36.459Z,10.33
2023-05-20T17:15:33.150Z,10.3
2023-05-20T17:20:29.403Z,10.23
2023-05-20T17:26:40.134Z,10.59
2023-05-20T17:31:36.642Z,10.56
2023-05-20T17:36:33.141Z,10.68
2023-05-20T17:41:29.756Z,10.88
2023-05-20T17:47:40.362Z,10.87
2023-05-20T17:52:37.013Z,10.81
2023-05-20T17:57:33.423Z,10.74
2023-05-20T18:08:40.654Z,10.85
2023-05-20T18:13:37.256Z,10.9
2023-05-20T18:18:33.787Z,11.2
2023-05-20T18:23:30.209Z,11.15
2023-05-20T18:29:40.974Z,11.16
2023-05-20T18:34:38.491Z,11.49
2023-05-20T18:39:33.956Z,11.48
2023-05-20T18:44:30.488Z,11.72
2023-05-20T18:49:27.002Z,11.63
2023-05-20T18:50:41.242Z,11.91
2023-05-20T18:55:37.688Z,12.12
2023-05-20T19:00:34.449Z,12.5
2023-05-20T19:05:30.699Z,12.97
2023-05-20T19:11:41.368Z,12.99
2023-05-20T19:16:37.937Z,13.39
2023-05-20T19:21:34.501Z,13.52
2023-05-20T19:32:41.765Z,13.54
2023-05-20T19:37:38.277Z,13.38
2023-05-20T19:42:34.719Z,13.22
2023-05-20T19:47:31.373Z,13.14
2023-05-20T19:53:42.100Z,13.14
2023-05-20T19:58:38.473Z,13.14
2023-05-20T20:03:34.997Z,13.06
2023-05-20T20:08:31.541Z,13.14
2023-05-20T20:14:42.245Z,13.14
2023-05-20T20:19:38.827Z,12.98
2023-05-20T20:24:35.241Z,12.9
2023-05-20T20:29:31.792Z,12.82
2023-05-20T20:35:42.573Z,12.9
2023-05-20T20:39:33.154Z,12.82
2023-05-20T20:44:29.593Z,12.74
2023-05-20T20:50:40.240Z,12.44
2023-05-20T21:00:33.413Z,12.44
2023-05-20T21:05:29.961Z,12.36
2023-05-20T21:11:40.523Z,12.51
2023-05-20T21:16:37.111Z,12.44
2023-05-20T21:21:33.716Z,12.51
2023-05-20T21:26:30.163Z,12.44
2023-05-20T21:32:40.814Z,12.51
2023-05-20T21:37:37.448Z,12.59
2023-05-20T21:42:33.959Z,12.59
2023-05-20T21:47:30.408Z,12.44
2023-05-20T21:53:41.030Z,12.51
2023-05-20T21:58:37.660Z,12.44
2023-05-20T22:03:34.234Z,12.44
2023-05-20T22:08:30.714Z,12.36
2023-05-20T22:14:41.423Z,12.44
2023-05-20T22:19:37.905Z,12.28
2023-05-20T22:24:34.421Z,12.44
2023-05-20T22:29:30.964Z,12.44
2023-05-20T22:35:41.553Z,12.51
2023-05-20T22:40:38.097Z,12.28
2023-05-20T22:45:34.983Z,12.36
2023-05-20T22:50:31.164Z,12.21
2023-05-20T22:56:41.858Z,12.36
2023-05-20T23:01:38.496Z,12.21
2023-05-20T23:06:34.917Z,12.28
2023-05-20T23:11:31.440Z,12.13
2023-05-20T23:17:42.160Z,12.06
2023-05-20T23:22:39.017Z,12.13
2023-05-20T23:27:35.139Z,12.06
2023-05-20T23:32:31.804Z,12.06
2023-05-20T23:38:42.394Z,11.91
2023-05-20T23:43:38.957Z,11.99
2023-05-20T23:44:53.113Z,11.99
2023-05-20T23:48:35.457Z,12.06
2023-05-20T23:53:31.981Z,12.13
2023-05-20T23:58:28.713Z,12.06
